createdAt,value
2018-03-21T00:00:52.606Z,3.00
2018-03-21T00:01:52.622Z,2.40
2018-03-21T00:02:52.424Z,2.90
2018-03-21T00:03:52.442Z,3.00
2018-03-21T00:04:52.280Z,3.10
2018-03-21T00:05:52.288Z,2.90
2018-03-21T00:06:52.133Z,2.60
2018-03-21T00:07:52.041Z,2.90
2018-03-21T00:08:51.950Z,2.80
2018-03-21T00:09:51.992Z,2.80
2018-03-21T00:10:51.754Z,3.10
2018-03-21T00:11:52.825Z,3.10
2018-03-21T00:12:51.605Z,2.80
2018-03-21T00:13:51.574Z,3.00
2018-03-21T00:14:51.430Z,3.50
2018-03-21T00:15:52.446Z,3.00
2018-03-21T00:16:51.308Z,2.80
2018-03-21T00:17:51.294Z,2.80
2018-03-21T00:18:51.088Z,2.90
2018-03-21T00:19:51.202Z,2.70
2018-03-21T00:20:50.958Z,2.70
2018-03-21T00:21:50.951Z,2.80
2018-03-21T00:22:50.754Z,2.80
2018-03-21T00:23:50.729Z,3.10
2018-03-21T00:24:50.586Z,2.60
2018-03-21T00:25:50.577Z,2.80
2018-03-21T00:26:50.435Z,3.10
2018-03-21T00:27:50.440Z,2.90
2018-03-21T00:28:50.250Z,2.50
2018-03-21T00:29:50.251Z,2.90
2018-03-21T00:30:50.083Z,2.80
2018-03-21T00:31:50.095Z,2.70
2018-03-21T00:32:49.917Z,2.60
2018-03-21T00:33:49.868Z,2.90
2018-03-21T00:34:49.749Z,2.90
2018-03-21T00:35:49.777Z,2.90
2018-03-21T00:36:49.662Z,2.40
2018-03-21T00:37:49.583Z,2.80
2018-03-21T00:38:49.415Z,2.50
2018-03-21T00:39:49.407Z,2.40
2018-03-21T00:40:49.253Z,2.70
2018-03-21T00:41:49.250Z,2.70
2018-03-21T00:42:49.141Z,2.80
2018-03-21T00:43:49.109Z,2.70
2018-03-21T00:44:48.914Z,3.00
2018-03-21T00:45:48.928Z,3.00
2018-03-21T00:46:48.770Z,2.80
2018-03-21T00:47:48.724Z,3.10
2018-03-21T00:48:48.591Z,2.90
2018-03-21T00:49:48.540Z,2.70
2018-03-21T00:50:48.398Z,2.70
2018-03-21T00:51:48.443Z,3.20
2018-03-21T00:52:48.254Z,2.90
2018-03-21T00:53:48.267Z,2.70
2018-03-21T00:54:48.073Z,2.70
2018-03-21T00:57:30.172Z,3.00
2018-03-21T00:58:30.160Z,3.10
2018-03-21T00:59:29.985Z,2.90
2018-03-21T01:00:29.978Z,3.10
2018-03-21T01:01:29.821Z,3.10
2018-03-21T01:02:29.815Z,2.90
2018-03-21T01:03:29.652Z,3.10
2018-03-21T01:04:29.691Z,3.00
2018-03-21T01:05:29.492Z,3.00
2018-03-21T01:06:29.543Z,2.90
2018-03-21T01:07:29.332Z,3.20
2018-03-21T01:08:29.350Z,3.30
2018-03-21T01:09:29.147Z,2.90
2018-03-21T01:10:29.114Z,3.10
2018-03-21T01:11:28.984Z,3.20
2018-03-21T01:12:28.942Z,3.00
2018-03-21T01:13:28.820Z,2.70
2018-03-21T01:14:28.843Z,2.80
2018-03-21T01:15:28.639Z,2.90
2018-03-21T01:16:28.648Z,2.80
2018-03-21T01:17:28.473Z,3.10
2018-03-21T01:18:28.500Z,2.90
2018-03-21T01:19:28.324Z,2.70
2018-03-21T01:20:28.260Z,2.80
2018-03-21T01:21:28.132Z,3.00
2018-03-21T01:22:28.205Z,2.90
2018-03-21T01:23:27.998Z,3.00
2018-03-21T01:24:27.973Z,2.80
2018-03-21T01:25:27.814Z,2.90
2018-03-21T01:26:27.786Z,3.10
2018-03-21T01:27:27.631Z,2.80
2018-03-21T01:28:27.633Z,3.40
2018-03-21T01:29:27.460Z,2.70
2018-03-21T01:30:27.515Z,3.20
2018-03-21T01:31:27.290Z,3.50
2018-03-21T01:32:27.315Z,3.00
2018-03-21T01:33:27.126Z,3.20
2018-03-21T01:34:27.167Z,2.80
2018-03-21T01:35:26.957Z,3.10
2018-03-21T01:36:26.938Z,2.90
2018-03-21T01:37:26.799Z,3.10
2018-03-21T01:38:26.738Z,3.20
2018-03-21T01:39:26.717Z,3.10
2018-03-21T01:40:26.651Z,3.30
2018-03-21T01:41:26.470Z,2.80
2018-03-21T01:42:26.476Z,3.30
2018-03-21T01:43:26.291Z,3.60
2018-03-21T01:44:26.306Z,3.10
2018-03-21T01:45:26.114Z,2.80
2018-03-21T01:46:26.052Z,3.20
2018-03-21T01:47:25.956Z,3.40
2018-03-21T01:48:25.985Z,3.50
2018-03-21T01:49:25.776Z,2.80
2018-03-21T01:50:25.834Z,3.00
2018-03-21T01:51:25.609Z,3.10
2018-03-21T01:52:25.600Z,3.30
2018-03-21T01:53:25.444Z,3.00
2018-03-21T01:54:25.417Z,2.90
2018-03-21T01:55:25.297Z,3.40
2018-03-21T01:56:25.326Z,3.30
2018-03-21T01:57:25.111Z,3.10
2018-03-21T01:58:25.131Z,3.00
2018-03-21T01:59:24.943Z,3.10
2018-03-21T02:00:25.192Z,3.20
2018-03-21T02:01:24.786Z,3.00
2018-03-21T02:04:06.678Z,3.30
2018-03-21T02:05:06.638Z,3.10
2018-03-21T02:06:06.510Z,3.50
2018-03-21T02:07:06.455Z,3.10
2018-03-21T02:08:06.319Z,3.10
2018-03-21T02:09:06.356Z,3.00
2018-03-21T02:10:06.175Z,3.20
2018-03-21T02:11:06.235Z,3.30
2018-03-21T02:12:05.993Z,3.50
2018-03-21T02:13:05.988Z,3.10
2018-03-21T02:14:05.827Z,3.20
2018-03-21T02:15:05.782Z,2.90
2018-03-21T02:16:05.673Z,3.00
2018-03-21T02:17:05.701Z,3.30
2018-03-21T02:18:05.522Z,3.10
2018-03-21T02:19:05.411Z,3.30
2018-03-21T02:20:05.314Z,3.50
2018-03-21T02:21:05.310Z,3.50
2018-03-21T02:22:05.167Z,3.30
2018-03-21T02:23:05.128Z,3.00
2018-03-21T02:24:04.979Z,3.70
2018-03-21T02:25:04.945Z,3.60
2018-03-21T02:26:04.800Z,3.30
2018-03-21T02:27:04.872Z,3.20
2018-03-21T02:28:04.638Z,3.30
2018-03-21T02:29:04.652Z,3.30
2018-03-21T02:30:04.494Z,3.60
2018-03-21T02:31:04.450Z,3.60
2018-03-21T02:32:04.331Z,3.30
2018-03-21T02:33:04.271Z,3.30
2018-03-21T02:34:04.133Z,3.20
2018-03-21T02:35:04.175Z,3.60
2018-03-21T02:36:03.969Z,2.90
2018-03-21T02:37:04.030Z,3.20
2018-03-21T02:38:03.793Z,3.60
2018-03-21T02:39:03.824Z,3.70
2018-03-21T02:40:03.621Z,3.50
2018-03-21T02:41:03.610Z,3.50
2018-03-21T02:42:03.468Z,3.50
2018-03-21T02:43:03.421Z,3.20
2018-03-21T02:44:03.313Z,3.30
2018-03-21T02:45:03.321Z,3.30
2018-03-21T02:46:03.121Z,3.50
2018-03-21T02:47:03.239Z,3.50
2018-03-21T02:48:02.951Z,3.40
2018-03-21T02:49:02.962Z,3.40
2018-03-21T02:50:02.784Z,3.60
2018-03-21T02:51:02.743Z,3.20
2018-03-21T02:52:02.623Z,3.50
2018-03-21T02:53:02.581Z,3.90
2018-03-21T02:54:02.449Z,3.70
2018-03-21T02:55:02.489Z,3.40
2018-03-21T02:56:02.290Z,3.90
2018-03-21T02:57:02.281Z,3.90
2018-03-21T02:58:02.118Z,3.90
2018-03-21T02:59:02.082Z,3.90
2018-03-21T03:00:01.944Z,3.60
2018-03-21T03:01:01.889Z,3.80
2018-03-21T03:02:01.769Z,3.60
2018-03-21T03:03:01.931Z,3.90
2018-03-21T03:04:01.601Z,4.00
2018-03-21T03:05:01.656Z,3.30
2018-03-21T03:06:01.428Z,3.70
2018-03-21T03:07:01.418Z,3.50
2018-03-21T03:08:01.260Z,3.50
2018-03-21T03:09:01.225Z,4.00
2018-03-21T03:10:01.117Z,3.80
2018-03-21T03:11:01.136Z,4.00
2018-03-21T03:12:00.934Z,4.00
2018-03-21T03:13:00.863Z,3.70
2018-03-21T03:14:00.781Z,3.90
2018-03-21T03:15:00.785Z,3.60
2018-03-21T03:16:00.582Z,3.70
2018-03-21T03:17:00.573Z,3.80
2018-03-21T03:18:00.419Z,3.40
2018-03-21T03:19:00.376Z,3.90
2018-03-21T03:20:00.280Z,3.30
2018-03-21T03:21:00.285Z,3.30
2018-03-21T03:22:00.077Z,3.50
2018-03-21T03:23:00.095Z,3.90
2018-03-21T03:23:59.923Z,3.70
2018-03-21T03:24:59.934Z,3.60
2018-03-21T03:25:59.767Z,3.70
2018-03-21T03:26:59.722Z,3.50
2018-03-21T03:27:59.574Z,3.80
2018-03-21T03:28:59.621Z,3.70
2018-03-21T03:29:59.422Z,3.90
2018-03-21T03:30:59.437Z,3.90
2018-03-21T03:31:59.230Z,3.90
2018-03-21T03:32:59.258Z,4.10
2018-03-21T03:33:59.060Z,3.60
2018-03-21T03:34:59.079Z,3.70
2018-03-21T03:35:58.910Z,3.50
2018-03-21T03:36:58.917Z,4.10
2018-03-21T03:37:58.740Z,3.40
2018-03-21T03:38:58.762Z,4.00
2018-03-21T03:39:58.559Z,3.90
2018-03-21T03:40:58.604Z,3.80
2018-03-21T03:41:58.393Z,3.60
2018-03-21T03:42:58.414Z,3.50
2018-03-21T03:43:58.210Z,3.50
2018-03-21T03:44:58.190Z,3.60
2018-03-21T03:45:58.073Z,3.60
2018-03-21T03:46:58.737Z,4.00
2018-03-21T03:47:57.900Z,3.50
2018-03-21T03:48:57.909Z,3.50
2018-03-21T03:49:57.707Z,3.30
2018-03-21T03:50:57.754Z,3.30
2018-03-21T03:51:57.535Z,4.00
2018-03-21T03:52:57.532Z,3.70
2018-03-21T03:53:57.376Z,4.30
2018-03-21T03:54:57.353Z,4.10
2018-03-21T03:55:57.266Z,3.80
2018-03-21T03:56:57.299Z,3.80
2018-03-21T03:57:57.028Z,3.90
2018-03-21T03:58:57.071Z,3.60
2018-03-21T03:59:56.875Z,3.70
2018-03-21T04:00:56.905Z,4.10
2018-03-21T04:01:56.693Z,3.50
2018-03-21T04:02:56.673Z,4.00
2018-03-21T04:03:56.583Z,3.70
2018-03-21T04:04:56.480Z,4.20
2018-03-21T04:05:56.379Z,3.80
2018-03-21T04:06:56.394Z,3.70
2018-03-21T04:07:56.192Z,4.00
2018-03-21T04:08:56.195Z,4.20
2018-03-21T04:09:56.012Z,4.20
2018-03-21T04:10:56.047Z,4.30
2018-03-21T04:11:55.847Z,4.10
2018-03-21T04:12:55.815Z,4.00
2018-03-21T04:13:55.687Z,4.10
2018-03-21T04:14:55.656Z,4.10
2018-03-21T04:15:55.515Z,4.00
2018-03-21T04:16:55.576Z,4.20
2018-03-21T04:17:55.387Z,4.30
2018-03-21T04:18:55.349Z,4.10
2018-03-21T04:19:55.725Z,4.10
2018-03-21T04:20:55.153Z,4.10
2018-03-21T04:21:55.018Z,4.10
2018-03-21T04:22:54.974Z,3.80
2018-03-21T04:23:54.860Z,4.10
2018-03-21T04:24:54.871Z,3.80
2018-03-21T04:25:54.671Z,4.00
2018-03-21T04:26:54.706Z,4.00
2018-03-21T04:27:54.494Z,4.10
2018-03-21T04:28:54.476Z,4.20
2018-03-21T04:29:54.320Z,4.20
2018-03-21T04:30:54.343Z,4.00
2018-03-21T04:31:54.143Z,4.40
2018-03-21T04:32:54.104Z,4.50
2018-03-21T04:33:54.005Z,4.10
2018-03-21T04:34:54.008Z,4.50
2018-03-21T04:35:53.835Z,4.50
2018-03-21T04:36:53.922Z,4.30
2018-03-21T04:37:53.665Z,4.60
2018-03-21T04:38:53.630Z,5.00
2018-03-21T04:39:53.477Z,4.90
2018-03-21T04:40:53.433Z,5.40
2018-03-21T04:41:53.332Z,5.00
2018-03-21T04:42:53.348Z,4.60
2018-03-21T04:43:53.145Z,4.60
2018-03-21T04:44:53.156Z,4.90
2018-03-21T04:45:52.961Z,4.70
2018-03-21T04:46:52.995Z,5.20
2018-03-21T04:47:52.800Z,4.80
2018-03-21T04:48:52.768Z,5.00
2018-03-21T04:49:52.629Z,4.90
2018-03-21T04:50:52.590Z,5.70
2018-03-21T04:51:52.493Z,5.70
2018-03-21T04:52:52.513Z,5.60
2018-03-21T04:53:52.302Z,5.60
2018-03-21T04:54:52.300Z,5.20
2018-03-21T04:55:52.123Z,6.00
2018-03-21T04:56:52.152Z,5.50
2018-03-21T04:57:51.971Z,6.10
2018-03-21T04:58:51.922Z,6.20
2018-03-21T04:59:51.780Z,5.90
2018-03-21T05:00:51.728Z,6.40
2018-03-21T05:01:51.653Z,5.20
2018-03-21T05:02:51.666Z,6.00
2018-03-21T05:03:51.434Z,5.90
2018-03-21T05:04:51.445Z,6.40
2018-03-21T05:05:51.266Z,6.10
2018-03-21T05:06:51.250Z,6.50
2018-03-21T05:07:51.135Z,6.20
2018-03-21T05:08:51.075Z,6.30
2018-03-21T05:09:50.928Z,5.90
2018-03-21T05:10:50.975Z,5.70
2018-03-21T05:11:50.760Z,6.20
2018-03-21T05:12:50.779Z,6.30
2018-03-21T05:13:50.637Z,6.40
2018-03-21T05:14:50.591Z,5.90
2018-03-21T05:15:50.417Z,6.50
2018-03-21T05:16:50.404Z,6.40
2018-03-21T05:17:50.247Z,6.20
2018-03-21T05:18:50.255Z,5.80
2018-03-21T05:19:50.082Z,6.20
2018-03-21T05:20:50.115Z,5.80
2018-03-21T05:21:49.908Z,5.70
2018-03-21T05:22:49.951Z,6.20
2018-03-21T05:23:49.856Z,5.90
2018-03-21T05:26:31.673Z,6.50
2018-03-21T05:27:31.659Z,6.50
2018-03-21T05:28:31.511Z,6.90
2018-03-21T05:29:31.464Z,6.20
2018-03-21T05:30:31.337Z,6.50
2018-03-21T05:31:31.356Z,7.20
2018-03-21T05:32:31.174Z,9.10
2018-03-21T05:33:31.155Z,10.60
2018-03-21T05:34:31.010Z,8.00
2018-03-21T05:35:31.006Z,8.70
2018-03-21T05:36:30.823Z,15.30
2018-03-21T05:37:30.778Z,8.90
2018-03-21T05:38:30.675Z,7.50
2018-03-21T05:39:30.680Z,7.60
2018-03-21T05:40:30.486Z,7.90
2018-03-21T05:41:30.489Z,7.80
2018-03-21T05:42:30.315Z,7.90
2018-03-21T05:43:30.332Z,8.00
2018-03-21T05:44:30.383Z,8.40
2018-03-21T05:45:30.108Z,8.30
2018-03-21T05:46:30.011Z,8.30
2018-03-21T05:47:30.069Z,9.70
2018-03-21T05:48:29.832Z,10.40
2018-03-21T05:51:11.678Z,11.90
2018-03-21T05:52:11.729Z,12.00
2018-03-21T05:53:11.507Z,10.70
2018-03-21T05:54:11.568Z,11.50
2018-03-21T05:55:11.336Z,12.00
2018-03-21T05:56:11.342Z,14.70
2018-03-21T05:57:11.174Z,17.30
2018-03-21T05:58:11.151Z,22.10
2018-03-21T05:59:11.012Z,30.20
2018-03-21T06:00:10.992Z,35.10
2018-03-21T06:01:10.832Z,43.50
2018-03-21T06:02:10.869Z,46.00
2018-03-21T06:03:10.652Z,45.60
2018-03-21T06:04:10.680Z,46.10
2018-03-21T06:05:10.581Z,42.10
2018-03-21T06:06:10.480Z,44.20
2018-03-21T06:07:10.332Z,42.20
2018-03-21T06:08:10.402Z,39.00
2018-03-21T06:09:10.147Z,38.20
2018-03-21T06:10:10.129Z,36.40
2018-03-21T06:11:09.982Z,35.40
2018-03-21T06:12:10.009Z,34.50
2018-03-21T06:13:09.828Z,33.90
2018-03-21T06:14:09.826Z,32.10
2018-03-21T06:15:09.655Z,31.70
2018-03-21T06:16:09.673Z,34.20
2018-03-21T06:17:09.471Z,36.80
2018-03-21T06:18:09.443Z,38.50
2018-03-21T06:19:09.310Z,39.20
2018-03-21T06:20:09.285Z,39.70
2018-03-21T06:21:09.139Z,39.50
2018-03-21T06:22:09.150Z,42.20
2018-03-21T06:23:08.967Z,42.50
2018-03-21T06:24:08.961Z,41.30
2018-03-21T06:25:08.858Z,43.60
2018-03-21T06:26:08.766Z,44.30
2018-03-21T06:27:08.617Z,45.50
2018-03-21T06:28:08.585Z,60.10
2018-03-21T06:29:08.450Z,79.50
2018-03-21T06:30:08.492Z,63.00
2018-03-21T06:31:08.337Z,50.10
2018-03-21T06:32:08.302Z,46.90
2018-03-21T06:33:08.128Z,45.20
2018-03-21T06:34:08.107Z,44.40
2018-03-21T06:35:07.973Z,46.20
2018-03-21T06:36:07.951Z,46.30
2018-03-21T06:37:07.784Z,46.80
2018-03-21T06:38:07.823Z,49.30
2018-03-21T06:39:07.613Z,50.60
2018-03-21T06:40:07.638Z,55.40
2018-03-21T06:41:07.451Z,61.90
2018-03-21T06:42:07.475Z,65.20
2018-03-21T06:43:07.281Z,63.40
2018-03-21T06:44:07.246Z,66.30
2018-03-21T06:45:07.100Z,66.80
2018-03-21T06:46:07.105Z,65.60
2018-03-21T06:47:06.966Z,61.00
2018-03-21T06:48:06.964Z,62.00
2018-03-21T06:49:06.763Z,60.10
2018-03-21T06:50:06.780Z,58.00
2018-03-21T06:51:06.616Z,59.50
2018-03-21T06:52:06.626Z,63.30
2018-03-21T06:53:06.431Z,59.60
2018-03-21T06:54:06.398Z,58.60
2018-03-21T06:55:06.319Z,57.30
2018-03-21T06:56:06.303Z,56.00
2018-03-21T06:57:06.094Z,56.40
2018-03-21T06:58:06.151Z,54.30
2018-03-21T06:59:05.938Z,54.70
2018-03-21T07:00:05.940Z,55.10
2018-03-21T07:01:05.762Z,54.40
2018-03-21T07:02:05.729Z,57.20
2018-03-21T07:03:05.636Z,57.10
2018-03-21T07:04:05.653Z,57.50
2018-03-21T07:05:05.431Z,54.00
2018-03-21T07:06:05.459Z,53.30
2018-03-21T07:07:05.259Z,52.20
2018-03-21T07:08:05.289Z,52.20
2018-03-21T07:09:05.147Z,48.60
2018-03-21T07:10:05.066Z,52.50
2018-03-21T07:11:04.917Z,48.90
2018-03-21T07:12:04.878Z,46.70
2018-03-21T07:13:04.771Z,46.30
2018-03-21T07:14:04.788Z,47.40
2018-03-21T07:15:04.619Z,46.90
2018-03-21T07:16:04.592Z,42.40
2018-03-21T07:17:04.408Z,43.20
2018-03-21T07:18:04.428Z,35.80
2018-03-21T07:19:04.264Z,32.90
2018-03-21T07:20:04.253Z,32.80
2018-03-21T07:21:04.082Z,32.50
2018-03-21T07:22:04.128Z,34.70
2018-03-21T07:23:03.940Z,32.90
2018-03-21T07:24:03.984Z,31.80
2018-03-21T07:25:03.755Z,29.90
2018-03-21T07:26:03.740Z,29.00
2018-03-21T07:27:03.575Z,26.30
2018-03-21T07:28:03.654Z,26.40
2018-03-21T07:29:03.431Z,24.90
2018-03-21T07:30:03.359Z,23.30
2018-03-21T07:31:03.319Z,21.70
2018-03-21T07:32:03.281Z,23.00
2018-03-21T07:33:03.058Z,23.40
2018-03-21T07:34:03.108Z,22.50
2018-03-21T07:35:02.893Z,23.10
2018-03-21T07:36:02.886Z,24.50
2018-03-21T07:37:02.736Z,23.60
2018-03-21T07:38:02.699Z,24.80
2018-03-21T07:39:02.620Z,25.30
2018-03-21T07:40:02.600Z,26.80
2018-03-21T07:41:02.415Z,25.90
2018-03-21T07:42:02.414Z,25.10
2018-03-21T07:43:02.226Z,25.90
2018-03-21T07:44:02.250Z,26.00
2018-03-21T07:45:02.161Z,27.60
2018-03-21T07:46:02.022Z,27.10
2018-03-21T07:47:01.896Z,25.60
2018-03-21T07:48:01.944Z,27.20
2018-03-21T07:49:01.732Z,26.70
2018-03-21T07:50:02.493Z,27.30
2018-03-21T07:51:01.551Z,28.00
2018-03-21T07:52:01.567Z,28.80
2018-03-21T07:53:01.385Z,28.90
2018-03-21T07:54:01.370Z,27.10
2018-03-21T07:55:01.238Z,27.70
2018-03-21T07:56:01.181Z,27.60
2018-03-21T07:57:01.048Z,25.60
2018-03-21T07:58:01.084Z,27.50
2018-03-21T07:59:00.881Z,26.60
2018-03-21T08:00:00.920Z,27.10
2018-03-21T08:01:00.727Z,27.10
2018-03-21T08:02:00.684Z,26.50
2018-03-21T08:03:00.545Z,26.00
2018-03-21T08:04:00.506Z,26.00
2018-03-21T08:05:00.374Z,26.20
2018-03-21T08:06:00.337Z,24.00
2018-03-21T08:07:00.264Z,24.80
2018-03-21T08:08:00.150Z,25.40
2018-03-21T08:09:00.054Z,25.80
2018-03-21T08:09:59.975Z,26.50
2018-03-21T08:10:59.889Z,23.50
2018-03-21T08:11:59.844Z,22.10
2018-03-21T08:12:59.727Z,20.80
2018-03-21T08:13:59.649Z,19.80
2018-03-21T08:14:59.594Z,19.90
2018-03-21T08:15:59.621Z,19.60
2018-03-21T08:16:59.374Z,19.30
2018-03-21T08:17:59.426Z,19.40
2018-03-21T08:18:59.206Z,20.60
2018-03-21T08:19:59.174Z,20.70
2018-03-21T08:20:59.035Z,20.90
2018-03-21T08:21:58.984Z,21.20
2018-03-21T08:22:58.878Z,22.60
2018-03-21T08:23:58.943Z,22.90
2018-03-21T08:24:58.883Z,22.90
2018-03-21T08:25:58.739Z,22.40
2018-03-21T08:27:00.213Z,24.10
2018-03-21T08:27:58.566Z,23.20
2018-03-21T08:28:58.388Z,23.90
2018-03-21T08:29:58.312Z,21.50
2018-03-21T08:30:58.230Z,19.50
2018-03-21T08:31:58.233Z,19.50
2018-03-21T08:32:58.041Z,19.20
2018-03-21T08:33:58.102Z,17.50
2018-03-21T08:34:57.925Z,17.20
2018-03-21T08:35:57.884Z,17.70
2018-03-21T08:36:57.713Z,17.90
2018-03-21T08:37:57.751Z,18.10
2018-03-21T08:38:57.559Z,17.70
2018-03-21T08:39:57.568Z,17.00
2018-03-21T08:40:57.523Z,16.70
2018-03-21T08:41:57.391Z,16.10
2018-03-21T08:42:57.220Z,17.00
2018-03-21T08:43:57.239Z,17.70
2018-03-21T08:44:57.045Z,21.60
2018-03-21T08:45:57.000Z,19.80
2018-03-21T08:46:56.895Z,15.80
2018-03-21T08:47:56.802Z,16.40
2018-03-21T08:48:56.701Z,17.20
2018-03-21T08:49:56.633Z,16.40
2018-03-21T08:50:56.555Z,14.70
2018-03-21T08:51:56.604Z,13.60
2018-03-21T08:52:56.381Z,13.90
2018-03-21T08:53:56.330Z,13.50
2018-03-21T08:54:56.210Z,14.30
2018-03-21T08:55:56.137Z,12.80
2018-03-21T08:56:56.173Z,13.30
2018-03-21T08:57:56.084Z,12.80
2018-03-21T08:58:55.868Z,12.60
2018-03-21T08:59:55.803Z,13.20
2018-03-21T09:00:55.718Z,12.90
2018-03-21T09:01:55.699Z,12.80
2018-03-21T09:02:55.542Z,12.90
2018-03-21T09:03:55.589Z,13.80
2018-03-21T09:04:55.380Z,14.20
2018-03-21T09:05:55.387Z,13.00
2018-03-21T09:06:55.233Z,12.60
2018-03-21T09:07:55.189Z,12.70
2018-03-21T09:08:55.044Z,12.70
2018-03-21T09:09:55.044Z,13.40
2018-03-21T09:10:54.891Z,12.80
2018-03-21T09:11:55.885Z,13.80
2018-03-21T09:12:54.712Z,12.80
2018-03-21T09:13:54.770Z,11.80
2018-03-21T09:14:54.550Z,12.20
2018-03-21T09:15:54.479Z,11.80
2018-03-21T09:16:54.425Z,11.50
2018-03-21T09:17:54.330Z,12.20
2018-03-21T09:18:54.220Z,11.90
2018-03-21T09:19:54.156Z,12.30
2018-03-21T09:20:54.061Z,11.20
2018-03-21T09:21:53.995Z,11.70
2018-03-21T09:22:53.906Z,11.20
2018-03-21T09:23:53.840Z,12.30
2018-03-21T09:24:53.735Z,11.60
2018-03-21T09:25:53.664Z,12.10
2018-03-21T09:26:53.574Z,12.60
2018-03-21T09:27:53.485Z,11.70
2018-03-21T09:28:53.414Z,11.00
2018-03-21T09:29:53.337Z,11.10
2018-03-21T09:30:53.234Z,12.00
2018-03-21T09:31:53.171Z,12.50
2018-03-21T09:32:53.073Z,12.90
2018-03-21T09:33:53.062Z,14.10
2018-03-21T09:34:52.906Z,11.70
2018-03-21T09:35:52.838Z,12.60
2018-03-21T09:36:52.832Z,14.40
2018-03-21T09:37:52.683Z,13.90
2018-03-21T09:38:52.578Z,15.80
2018-03-21T09:39:52.528Z,15.80
2018-03-21T09:40:52.412Z,15.60
2018-03-21T09:41:52.341Z,14.70
2018-03-21T09:42:52.249Z,15.70
2018-03-21T09:43:52.201Z,13.20
2018-03-21T09:44:52.102Z,14.80
2018-03-21T09:45:52.015Z,15.00
2018-03-21T09:46:51.920Z,15.50
2018-03-21T09:47:51.858Z,14.30
2018-03-21T09:48:51.749Z,13.40
2018-03-21T09:49:51.789Z,14.20
2018-03-21T09:50:51.592Z,14.30
2018-03-21T09:51:51.515Z,15.40
2018-03-21T09:52:51.421Z,12.90
2018-03-21T09:53:51.358Z,12.70
2018-03-21T09:54:51.289Z,14.00
2018-03-21T09:55:51.215Z,13.90
2018-03-21T09:56:51.102Z,14.20
2018-03-21T09:57:51.040Z,14.20
2018-03-21T09:58:50.952Z,14.20
2018-03-21T09:59:50.864Z,13.50
2018-03-21T10:00:50.766Z,11.20
2018-03-21T10:01:50.691Z,12.00
2018-03-21T10:02:50.605Z,12.20
2018-03-21T10:03:50.533Z,12.10
2018-03-21T10:04:50.460Z,12.40
2018-03-21T10:05:50.389Z,12.50
2018-03-21T10:06:50.288Z,13.40
2018-03-21T10:07:50.208Z,14.20
2018-03-21T10:08:50.107Z,14.20
2018-03-21T10:09:50.148Z,14.00
2018-03-21T10:10:49.977Z,15.40
2018-03-21T10:11:49.899Z,13.30
2018-03-21T10:12:49.778Z,13.80
2018-03-21T10:13:49.701Z,14.50
2018-03-21T10:14:49.614Z,13.40
2018-03-21T10:15:49.580Z,13.40
2018-03-21T10:16:49.462Z,13.20
2018-03-21T10:17:49.380Z,13.40
2018-03-21T10:18:49.297Z,13.80
2018-03-21T10:19:49.253Z,13.60
2018-03-21T10:20:49.138Z,14.50
2018-03-21T10:21:49.052Z,14.90
2018-03-21T10:22:48.953Z,15.10
2018-03-21T10:23:48.895Z,14.10
2018-03-21T10:24:48.800Z,15.10
2018-03-21T10:25:48.737Z,13.00
2018-03-21T10:26:48.677Z,12.30
2018-03-21T10:27:48.564Z,11.00
2018-03-21T10:28:48.480Z,11.60
2018-03-21T10:29:48.425Z,10.90
2018-03-21T10:30:48.312Z,10.40
2018-03-21T10:31:48.232Z,10.00
2018-03-21T10:32:48.142Z,11.00
2018-03-21T10:33:48.070Z,10.00
2018-03-21T10:34:48.012Z,9.60
2018-03-21T10:35:47.903Z,9.10
2018-03-21T10:36:47.811Z,10.00
2018-03-21T10:37:47.763Z,10.50
2018-03-21T10:38:47.658Z,10.70
2018-03-21T10:39:47.583Z,9.70
2018-03-21T10:40:47.513Z,10.00
2018-03-21T10:41:47.426Z,9.30
2018-03-21T10:42:47.462Z,9.60
2018-03-21T10:43:47.247Z,9.10
2018-03-21T10:44:47.159Z,10.90
2018-03-21T10:45:47.102Z,11.50
2018-03-21T10:46:47.010Z,13.20
2018-03-21T10:47:46.928Z,12.20
2018-03-21T10:48:46.832Z,10.70
2018-03-21T10:49:46.758Z,11.40
2018-03-21T10:50:46.664Z,9.70
2018-03-21T10:51:46.611Z,9.80
2018-03-21T10:52:46.512Z,10.30
2018-03-21T10:53:46.434Z,10.20
2018-03-21T10:54:46.359Z,11.20
2018-03-21T10:55:46.262Z,12.20
2018-03-21T10:56:46.203Z,10.70
2018-03-21T10:57:46.122Z,10.70
2018-03-21T10:58:46.013Z,12.10
2018-03-21T10:59:45.950Z,12.30
2018-03-21T11:00:45.846Z,11.50
2018-03-21T11:01:45.796Z,12.20
2018-03-21T11:02:45.862Z,11.50
2018-03-21T11:03:45.620Z,10.90
2018-03-21T11:04:45.513Z,11.70
2018-03-21T11:05:45.485Z,12.80
2018-03-21T11:06:45.346Z,13.60
2018-03-21T11:07:45.288Z,12.70
2018-03-21T11:08:45.209Z,10.40
2018-03-21T11:09:45.126Z,11.00
2018-03-21T11:10:45.036Z,11.40
2018-03-21T11:11:44.961Z,14.20
2018-03-21T11:12:44.940Z,12.50
2018-03-21T11:13:44.787Z,11.50
2018-03-21T11:14:44.707Z,12.90
2018-03-21T11:15:44.659Z,12.20
2018-03-21T11:16:44.530Z,12.20
2018-03-21T11:17:44.502Z,12.20
2018-03-21T11:18:44.383Z,13.60
2018-03-21T11:19:44.296Z,13.00
2018-03-21T11:20:44.232Z,12.20
2018-03-21T11:21:44.128Z,11.90
2018-03-21T11:22:44.049Z,11.70
2018-03-21T11:23:44.020Z,14.60
2018-03-21T11:24:43.886Z,14.60
2018-03-21T11:25:43.826Z,13.90
2018-03-21T11:26:43.720Z,13.30
2018-03-21T11:27:43.696Z,13.60
2018-03-21T11:28:43.556Z,11.80
2018-03-21T11:29:43.478Z,12.90
2018-03-21T11:30:43.394Z,10.50
2018-03-21T11:31:43.326Z,10.70
2018-03-21T11:32:43.283Z,11.80
2018-03-21T11:33:43.184Z,10.80
2018-03-21T11:34:43.064Z,10.90
2018-03-21T11:35:43.117Z,11.50
2018-03-21T11:36:42.901Z,10.80
2018-03-21T11:37:42.844Z,11.30
2018-03-21T11:38:42.733Z,11.90
2018-03-21T11:39:42.701Z,9.70
2018-03-21T11:40:42.588Z,10.50
2018-03-21T11:41:42.519Z,9.30
2018-03-21T11:42:42.409Z,9.80
2018-03-21T11:43:42.386Z,8.80
2018-03-21T11:44:42.259Z,9.80
2018-03-21T11:45:42.182Z,9.60
2018-03-21T11:46:42.105Z,9.30
2018-03-21T11:47:42.024Z,9.30
2018-03-21T11:48:41.941Z,9.30
2018-03-21T11:49:41.870Z,9.00
2018-03-21T11:50:41.756Z,9.40
2018-03-21T11:51:41.717Z,9.60
2018-03-21T11:52:41.601Z,10.60
2018-03-21T11:53:41.544Z,9.60
2018-03-21T11:54:42.009Z,10.00
2018-03-21T11:55:41.373Z,9.30
2018-03-21T11:56:41.300Z,8.70
2018-03-21T11:57:41.205Z,8.30
2018-03-21T11:58:41.127Z,9.30
2018-03-21T11:59:41.050Z,10.00
2018-03-21T12:00:41.015Z,10.10
2018-03-21T12:01:40.880Z,10.10
2018-03-21T12:02:40.793Z,9.50
2018-03-21T12:03:40.751Z,9.40
2018-03-21T12:04:40.639Z,8.70
2018-03-21T12:05:40.636Z,8.00
2018-03-21T12:06:40.497Z,8.80
2018-03-21T12:07:40.436Z,8.50
2018-03-21T12:08:41.313Z,7.50
2018-03-21T12:09:40.257Z,7.30
2018-03-21T12:10:40.174Z,7.90
2018-03-21T12:11:40.213Z,8.00
2018-03-21T12:12:40.005Z,8.20
2018-03-21T12:13:39.918Z,8.40
2018-03-21T12:14:39.893Z,8.20
2018-03-21T12:15:39.789Z,7.90
2018-03-21T12:16:39.726Z,8.40
2018-03-21T12:17:39.654Z,9.10
2018-03-21T12:18:39.531Z,9.10
2018-03-21T12:19:39.445Z,8.90
2018-03-21T12:20:39.364Z,8.80
2018-03-21T12:21:39.309Z,8.40
2018-03-21T12:22:39.208Z,9.10
2018-03-21T12:23:39.145Z,10.20
2018-03-21T12:24:39.065Z,8.80
2018-03-21T12:25:38.956Z,8.60
2018-03-21T12:26:38.904Z,10.10
2018-03-21T12:27:38.825Z,11.90
2018-03-21T12:28:38.718Z,11.30
2018-03-21T12:29:38.632Z,14.20
2018-03-21T12:30:38.614Z,12.00
2018-03-21T12:31:39.303Z,11.50
2018-03-21T12:32:38.412Z,12.10
2018-03-21T12:33:38.310Z,12.20
2018-03-21T12:34:38.246Z,10.70
2018-03-21T12:35:38.156Z,12.20
2018-03-21T12:36:38.119Z,11.50
2018-03-21T12:37:38.008Z,11.20
2018-03-21T12:38:39.941Z,9.30
2018-03-21T12:39:37.828Z,9.40
2018-03-21T12:40:37.828Z,8.60
2018-03-21T12:41:37.690Z,7.90
2018-03-21T12:42:37.617Z,7.70
2018-03-21T12:43:37.515Z,7.20
2018-03-21T12:44:37.558Z,7.90
2018-03-21T12:45:37.373Z,8.50
2018-03-21T12:46:37.384Z,9.10
2018-03-21T12:47:37.204Z,9.70
2018-03-21T12:48:37.151Z,9.10
2018-03-21T12:49:37.030Z,12.60
2018-03-21T12:50:37.002Z,12.90
2018-03-21T12:51:36.859Z,11.10
2018-03-21T12:52:36.851Z,9.80
2018-03-21T12:53:36.736Z,10.00
2018-03-21T12:54:36.729Z,9.20
2018-03-21T12:55:36.594Z,9.50
2018-03-21T12:56:36.534Z,9.50
2018-03-21T12:57:36.394Z,9.80
2018-03-21T12:58:36.376Z,10.30
2018-03-21T12:59:36.240Z,9.30
2018-03-21T13:00:36.250Z,9.30
2018-03-21T13:01:36.162Z,8.90
2018-03-21T13:02:36.097Z,9.70
2018-03-21T13:03:35.923Z,10.00
2018-03-21T13:04:35.976Z,11.30
2018-03-21T13:05:35.762Z,10.40
2018-03-21T13:06:35.691Z,11.30
2018-03-21T13:07:35.642Z,9.60
2018-03-21T13:08:35.570Z,9.10
2018-03-21T13:09:35.441Z,9.00
2018-03-21T13:12:17.248Z,12.40
2018-03-21T13:13:17.162Z,12.00